Time;durP1;ratioP1;P1;durP2;ratioP2;P2;SDS_P1;SDS_P2;PMS_P1;PMS_P2;Temp;Humidity;BMP_temperature;BMP_pressure;BME280_temperature;BME280_humidity;BME280_pressure;Samples;Min_cycle;Max_cycle;Signal;HPM_P1;HPM_P2
2022/11/23 00:02:38;;;;;;;3.43;3.33;;;3.30;99.90;;;;;;6339931;28;20532;-66
2022/11/23 00:05:42;;;;;;;3.07;2.97;;;3.30;99.90;;;;;;6339063;28;20302;-66
2022/11/23 00:08:48;;;;;;;3.50;3.33;;;3.30;99.90;;;;;;6338801;28;20297;-66
2022/11/23 00:11:52;;;;;;;3.23;3.13;;;3.20;99.90;;;;;;6315852;28;20266;-67
2022/11/23 00:14:57;;;;;;;3.47;3.27;;;3.30;99.90;;;;;;6289515;28;20480;-67
2022/11/23 00:18:04;;;;;;;3.97;3.73;;;3.30;99.90;;;;;;6289904;28;20274;-67
2022/11/23 00:21:12;;;;;;;3.57;3.40;;;3.30;99.90;;;;;;6288673;28;20305;-67
2022/11/23 00:24:17;;;;;;;3.37;3.27;;;3.30;99.90;;;;;;6288888;28;20622;-67
2022/11/23 00:27:22;;;;;;;3.40;3.20;;;3.30;99.90;;;;;;6289292;28;20266;-67
2022/11/23 00:30:27;;;;;;;3.80;3.03;;;3.40;99.90;;;;;;6288958;28;20469;-67
2022/11/23 00:33:34;;;;;;;3.33;3.20;;;3.30;99.90;;;;;;6288850;28;20293;-66
2022/11/23 00:36:39;;;;;;;3.60;3.43;;;3.20;99.90;;;;;;6289364;28;20278;-66
2022/11/23 00:39:44;;;;;;;3.00;2.90;;;3.20;99.90;;;;;;6301436;28;20606;-67
2022/11/23 00:42:49;;;;;;;2.97;2.77;;;3.20;99.90;;;;;;6313711;28;20269;-66
2022/11/23 00:46:04;;;;;;;4.00;3.80;;;3.20;99.90;;;;;;6294663;28;20313;-67
2022/11/23 00:49:11;;;;;;;3.60;3.50;;;3.20;99.90;;;;;;6313138;28;20297;-67
2022/11/23 00:52:16;;;;;;;2.83;2.73;;;3.10;99.90;;;;;;6313906;28;20266;-67
2022/11/23 00:55:21;;;;;;;2.93;2.73;;;3.20;99.90;;;;;;6312850;28;20301;-66
2022/11/23 00:58:26;;;;;;;2.80;2.60;;;3.20;99.90;;;;;;6312677;28;20273;-67
2022/11/23 01:01:33;;;;;;;2.20;2.20;;;3.30;99.90;;;;;;6313223;28;20454;-67
2022/11/23 01:04:40;;;;;;;2.30;2.20;;;3.30;99.90;;;;;;6312194;28;20324;-67
2022/11/23 01:07:45;;;;;;;2.20;2.20;;;3.30;99.90;;;;;;6312702;28;20270;-67
2022/11/23 01:10:49;;;;;;;2.90;2.70;;;3.30;99.90;;;;;;6294762;28;20463;-67
2022/11/23 01:13:55;;;;;;;2.83;2.73;;;3.30;99.90;;;;;;6312724;28;20302;-67
2022/11/23 01:17:00;;;;;;;2.50;2.30;;;3.30;99.90;;;;;;6313037;28;20269;-67
2022/11/23 01:20:09;;;;;;;3.10;2.80;;;3.40;99.90;;;;;;6311169;28;20298;-68
2022/11/23 01:23:17;;;;;;;2.67;2.57;;;3.40;99.90;;;;;;6311290;28;20449;-67
2022/11/23 01:26:22;;;;;;;2.40;2.40;;;3.30;99.90;;;;;;6312588;28;20270;-67
2022/11/23 01:29:27;;;;;;;2.40;2.40;;;3.40;99.90;;;;;;6311794;28;20295;-67
2022/11/23 01:32:31;;;;;;;2.40;2.30;;;3.40;99.90;;;;;;6311310;28;20576;-67
2022/11/23 01:35:39;;;;;;;2.90;2.80;;;3.40;99.90;;;;;;6312201;28;20294;-67
2022/11/23 01:38:45;;;;;;;2.90;2.80;;;3.40;99.90;;;;;;6314965;28;20304;-67
2022/11/23 01:41:50;;;;;;;2.70;2.60;;;3.50;99.90;;;;;;6337242;28;20286;-67
2022/11/23 01:45:35;;;;;;;2.97;2.87;;;3.40;99.90;;;;;;6336359;28;20484;-68
2022/11/23 01:48:44;;;;;;;2.50;2.47;;;3.50;99.90;;;;;;6336836;28;20590;-68
2022/11/23 01:51:53;;;;;;;2.70;2.60;;;3.40;99.90;;;;;;6337094;28;20266;-68
2022/11/23 01:54:58;;;;;;;2.50;2.50;;;3.40;99.90;;;;;;6336912;28;20295;-68
2022/11/23 01:58:14;;;;;;;2.60;2.40;;;3.40;99.90;;;;;;6317617;28;20265;-66
2022/11/23 02:01:19;;;;;;;2.60;2.47;;;3.40;99.90;;;;;;6319279;28;20269;-66
2022/11/23 02:04:28;;;;;;;2.97;2.83;;;3.40;99.90;;;;;;6318528;28;20295;-66
2022/11/23 02:07:35;;;;;;;2.60;2.50;;;3.40;99.90;;;;;;6318468;28;20269;-66
2022/11/23 02:10:39;;;;;;;2.90;2.80;;;3.50;99.90;;;;;;6333035;28;20299;-66
2022/11/23 02:13:50;;;;;;;2.47;2.47;;;3.40;99.90;;;;;;6286811;28;20560;-67
2022/11/23 02:16:57;;;;;;;3.43;2.83;;;3.40;99.90;;;;;;6285429;28;20269;-68
2022/11/23 02:20:08;;;;;;;2.70;2.50;;;3.50;99.90;;;;;;6284949;28;20290;-66
2022/11/23 02:23:28;;;;;;;2.30;2.20;;;3.40;99.90;;;;;;6284870;28;20278;-67
2022/11/23 02:26:36;;;;;;;2.43;2.33;;;3.40;99.90;;;;;;6285638;28;20303;-66
2022/11/23 02:29:41;;;;;;;1.80;1.80;;;3.50;99.90;;;;;;6286196;28;20311;-66
2022/11/23 02:32:46;;;;;;;2.10;2.10;;;3.50;99.90;;;;;;6285437;28;20454;-66
2022/11/23 02:35:53;;;;;;;2.10;2.10;;;3.50;99.90;;;;;;6284778;28;20300;-67
2022/11/23 02:39:00;;;;;;;2.07;1.97;;;3.50;99.90;;;;;;6290017;28;20303;-67
2022/11/23 02:42:07;;;;;;;2.00;2.00;;;3.50;99.90;;;;;;6311361;28;20271;-67
2022/11/23 02:45:19;;;;;;;2.77;2.57;;;3.60;99.90;;;;;;6310172;28;20486;-66
2022/11/23 02:48:24;;;;;;;2.00;1.90;;;3.60;99.90;;;;;;6309769;28;20266;-67
2022/11/23 02:51:28;;;;;;;1.67;1.67;;;3.60;99.90;;;;;;6310894;28;20288;-67
2022/11/23 02:54:34;;;;;;;2.33;2.23;;;3.50;99.90;;;;;;6309996;28;20479;-67
2022/11/23 02:57:40;;;;;;;2.67;1.77;;;3.50;99.90;;;;;;6310933;28;20275;-67
2022/11/23 03:00:47;;;;;;;2.43;2.33;;;3.50;99.90;;;;;;6310286;28;20301;-67
2022/11/23 03:03:56;;;;;;;2.17;2.07;;;3.50;99.90;;;;;;6309973;28;20583;-67
2022/11/23 03:07:03;;;;;;;3.30;2.10;;;3.50;99.90;;;;;;6293441;28;20263;-67
2022/11/23 03:10:11;;;;;;;1.87;1.87;;;3.60;99.90;;;;;;6315116;28;20298;-66
2022/11/23 03:13:17;;;;;;;2.20;2.20;;;3.60;99.90;;;;;;6312327;28;20275;-66
2022/11/23 03:16:23;;;;;;;2.10;2.00;;;3.60;99.90;;;;;;6316107;28;20281;-66
2022/11/23 03:19:28;;;;;;;2.03;2.03;;;3.60;99.90;;;;;;6313966;28;20302;-67
2022/11/23 03:22:34;;;;;;;1.90;1.80;;;3.60;99.90;;;;;;6315583;28;20266;-67
2022/11/23 03:25:39;;;;;;;1.80;1.80;;;3.60;99.90;;;;;;6313898;28;20321;-66
2022/11/23 03:28:45;;;;;;;1.70;1.60;;;3.50;99.90;;;;;;6313727;28;20317;-67
2022/11/23 03:31:53;;;;;;;1.97;1.97;;;3.60;99.90;;;;;;6314308;28;20301;-67
2022/11/23 03:34:58;;;;;;;1.63;1.63;;;3.60;99.90;;;;;;6313545;28;20334;-67
2022/11/23 03:38:04;;;;;;;1.83;1.77;;;3.60;99.90;;;;;;6313715;28;20275;-67
2022/11/23 03:41:10;;;;;;;2.03;1.93;;;3.60;99.90;;;;;;6292750;28;20306;-67
2022/11/23 03:44:27;;;;;;;2.30;2.20;;;3.60;99.90;;;;;;6288570;28;20307;-67
2022/11/23 03:47:32;;;;;;;1.80;1.80;;;3.60;99.90;;;;;;6288710;28;20271;-67
2022/11/23 03:50:36;;;;;;;2.10;2.10;;;3.70;99.90;;;;;;6289626;28;20301;-67
2022/11/23 03:53:41;;;;;;;2.03;2.03;;;3.60;99.90;;;;;;6288227;28;20294;-67
2022/11/23 03:56:46;;;;;;;1.80;1.80;;;3.70;99.90;;;;;;6288959;28;20467;-66
2022/11/23 03:59:52;;;;;;;2.50;2.40;;;3.60;99.90;;;;;;6288041;28;20598;-66
2022/11/23 04:02:58;;;;;;;1.80;1.80;;;3.60;99.90;;;;;;6267343;28;20290;-67
2022/11/23 04:06:22;;;;;;;1.60;1.60;;;3.70;99.90;;;;;;6282796;28;20266;-67
2022/11/23 04:09:26;;;;;;;1.87;1.83;;;3.70;99.90;;;;;;6264160;28;20296;-66
2022/11/23 04:12:40;;;;;;;4.37;1.90;;;3.80;99.90;;;;;;6282553;28;20328;-67
2022/11/23 04:15:46;;;;;;;3.77;1.97;;;3.70;99.90;;;;;;6263482;28;20435;-67
2022/11/23 04:18:51;;;;;;;1.90;1.90;;;3.80;99.90;;;;;;6257669;28;20297;-67
2022/11/23 04:21:56;;;;;;;1.90;1.90;;;3.80;99.90;;;;;;6222281;28;20270;-68
2022/11/23 04:25:04;;;;;;;1.93;1.93;;;3.80;99.90;;;;;;6246431;28;20272;-66
2022/11/23 04:28:12;;;;;;;2.00;1.90;;;3.70;99.90;;;;;;6246874;28;20302;-66
2022/11/23 04:31:20;;;;;;;2.03;2.03;;;3.70;99.90;;;;;;6246898;28;20390;-67
2022/11/23 04:34:37;;;;;;;1.90;1.90;;;3.70;99.90;;;;;;6246346;28;20297;-68
2022/11/23 04:37:44;;;;;;;1.90;1.90;;;3.70;99.90;;;;;;6265456;28;20296;-67
2022/11/23 04:40:49;;;;;;;1.90;1.90;;;3.70;99.90;;;;;;6270775;28;20296;-67
2022/11/23 04:43:54;;;;;;;1.93;1.83;;;3.60;99.90;;;;;;6270793;28;20591;-67
2022/11/23 04:47:02;;;;;;;1.77;1.67;;;3.70;99.90;;;;;;6270252;28;20267;-67
2022/11/23 04:50:10;;;;;;;1.80;1.70;;;3.70;99.90;;;;;;6271356;28;20271;-67
2022/11/23 04:53:15;;;;;;;1.70;1.67;;;3.80;99.90;;;;;;6270130;28;20482;-67
2022/11/23 04:56:23;;;;;;;2.20;2.10;;;3.80;99.90;;;;;;6270709;28;20268;-67
2022/11/23 04:59:28;;;;;;;2.00;2.00;;;3.70;99.90;;;;;;6270434;28;20298;-67
2022/11/23 05:02:37;;;;;;;2.00;1.90;;;3.70;99.90;;;;;;6270126;28;20364;-66
2022/11/23 05:05:51;;;;;;;2.37;2.23;;;3.70;99.90;;;;;;6270779;28;20282;-66
2022/11/23 05:08:56;;;;;;;2.00;2.00;;;3.80;99.90;;;;;;6246090;28;20297;-66
2022/11/23 05:12:24;;;;;;;2.10;2.10;;;3.70;99.90;;;;;;6249816;28;20292;-67
2022/11/23 05:15:29;;;;;;;2.33;2.33;;;3.80;99.90;;;;;;6270526;28;20273;-67
2022/11/23 05:18:36;;;;;;;2.10;2.07;;;3.80;99.90;;;;;;6269731;28;20296;-67
2022/11/23 05:21:41;;;;;;;2.53;1.83;;;3.90;99.90;;;;;;6288181;28;20271;-66
2022/11/23 05:24:45;;;;;;;2.00;2.00;;;3.90;99.90;;;;;;6269451;28;20295;-68
2022/11/23 05:27:55;;;;;;;1.97;1.87;;;3.80;99.90;;;;;;6269480;28;20325;-66
2022/11/23 05:30:59;;;;;;;1.93;1.93;;;3.80;99.90;;;;;;6269482;28;20454;-67
2022/11/23 05:34:06;;;;;;;2.00;2.00;;;3.90;99.90;;;;;;6269596;28;20291;-68
2022/11/23 05:37:19;;;;;;;2.57;2.47;;;3.90;99.90;;;;;;6269232;28;20269;-68
2022/11/23 05:40:34;;;;;;;2.30;2.20;;;3.90;99.90;;;;;;6269963;28;20296;-68
2022/11/23 05:43:40;;;;;;;2.30;2.30;;;3.90;99.90;;;;;;6269492;28;20294;-67
2022/11/23 05:46:47;;;;;;;2.70;2.60;;;3.90;99.90;;;;;;6286101;28;20286;-67
2022/11/23 05:49:54;;;;;;;4.57;4.27;;;3.90;99.90;;;;;;6285903;28;20467;-67
2022/11/23 05:53:03;;;;;;;2.53;2.43;;;3.90;99.90;;;;;;6277739;28;20310;-67
2022/11/23 05:56:08;;;;;;;3.17;2.30;;;3.90;99.90;;;;;;6294057;28;20266;-67
2022/11/23 05:59:22;;;;;;;2.10;2.10;;;3.80;99.90;;;;;;6293714;28;20489;-67
2022/11/23 06:02:34;;;;;;;2.03;1.93;;;3.80;99.90;;;;;;6293518;28;20300;-68
2022/11/23 06:05:47;;;;;;;2.53;2.53;;;3.80;99.90;;;;;;6294229;28;20265;-67
2022/11/23 06:08:55;;;;;;;2.53;2.33;;;3.80;99.90;;;;;;6293431;28;20296;-67
2022/11/23 06:12:00;;;;;;;2.33;2.33;;;3.80;99.90;;;;;;6293242;28;20283;-68
2022/11/23 06:15:07;;;;;;;2.70;2.60;;;3.90;99.90;;;;;;6293638;28;20272;-68
2022/11/23 06:18:12;;;;;;;2.87;2.50;;;3.80;99.90;;;;;;6293330;28;20291;-67
2022/11/23 06:21:25;;;;;;;2.77;2.77;;;3.90;99.90;;;;;;6293260;28;20267;-67
2022/11/23 06:24:30;;;;;;;2.93;2.83;;;3.70;99.90;;;;;;6310810;28;20308;-67
2022/11/23 06:28:07;;;;;;;3.80;3.00;;;3.70;99.90;;;;;;6287954;28;20295;-67
2022/11/23 06:31:18;;;;;;;2.93;2.83;;;3.70;99.90;;;;;;6293209;28;20277;-66
2022/11/23 06:34:23;;;;;;;2.87;2.77;;;3.70;99.90;;;;;;6293165;28;20611;-67
2022/11/23 06:37:29;;;;;;;2.80;2.70;;;3.80;99.90;;;;;;6292949;28;20292;-67
2022/11/23 06:40:34;;;;;;;3.17;2.97;;;3.50;99.90;;;;;;6310957;28;20323;-67
2022/11/23 06:43:40;;;;;;;2.60;2.40;;;3.60;99.90;;;;;;6292294;28;20300;-67
2022/11/23 06:46:45;;;;;;;2.90;2.70;;;3.60;99.90;;;;;;6311084;28;20270;-68
2022/11/23 06:49:51;;;;;;;2.57;2.47;;;3.60;99.90;;;;;;6292267;28;20294;-68
2022/11/23 06:53:04;;;;;;;2.80;2.70;;;3.60;99.90;;;;;;6291872;28;20299;-67
2022/11/23 06:56:17;;;;;;;3.00;2.80;;;3.40;99.90;;;;;;6292845;28;20555;-67
2022/11/23 06:59:22;;;;;;;3.10;3.00;;;3.30;99.90;;;;;;6292499;28;20301;-66
2022/11/23 07:02:27;;;;;;;5.03;2.90;;;3.40;99.90;;;;;;6292011;28;20301;-67
2022/11/23 07:05:34;;;;;;;2.83;2.77;;;3.40;99.90;;;;;;6292515;28;20273;-67
2022/11/23 07:08:42;;;;;;;3.27;3.00;;;3.40;99.90;;;;;;6309054;28;20301;-66
2022/11/23 07:12:11;;;;;;;3.00;2.83;;;3.50;99.90;;;;;;6292186;28;20281;-67
2022/11/23 07:15:16;;;;;;;3.13;3.00;;;3.50;99.90;;;;;;6310405;28;20267;-66
2022/11/23 07:18:21;;;;;;;3.53;3.17;;;3.40;99.90;;;;;;6292276;28;20289;-67
2022/11/23 07:21:31;;;;;;;3.43;3.13;;;3.40;99.90;;;;;;6292684;28;20273;-66
2022/11/23 07:24:37;;;;;;;5.37;3.50;;;3.40;99.90;;;;;;6292318;28;20304;-67
2022/11/23 07:27:53;;;;;;;3.93;3.67;;;3.40;99.90;;;;;;6292122;28;20321;-66
2022/11/23 07:30:57;;;;;;;3.87;3.70;;;3.50;99.90;;;;;;6292564;28;20540;-67
2022/11/23 07:34:03;;;;;;;3.77;3.67;;;3.50;99.90;;;;;;6291946;28;20294;-67
2022/11/23 07:37:13;;;;;;;3.30;3.10;;;3.60;99.90;;;;;;6292623;28;20274;-67
2022/11/23 07:40:19;;;;;;;3.50;3.40;;;3.60;99.90;;;;;;6284112;28;20581;-67
2022/11/23 07:43:24;;;;;;;4.03;3.80;;;3.60;99.90;;;;;;6285095;28;20297;-66
2022/11/23 07:46:30;;;;;;;5.83;4.10;;;3.60;99.90;;;;;;6284047;28;20451;-67
2022/11/23 07:49:35;;;;;;;3.40;3.30;;;3.60;99.90;;;;;;6285274;28;20296;-67
2022/11/23 07:52:40;;;;;;;4.73;3.40;;;3.60;99.90;;;;;;6285173;28;20301;-67
2022/11/23 07:55:46;;;;;;;3.90;3.63;;;3.70;99.90;;;;;;6290158;28;20274;-67
2022/11/23 07:58:52;;;;;;;3.90;3.60;;;3.60;99.90;;;;;;6289570;28;20586;-67
2022/11/23 08:01:56;;;;;;;3.07;2.97;;;3.60;99.90;;;;;;6290005;28;20263;-67
2022/11/23 08:05:02;;;;;;;3.60;3.40;;;3.60;99.90;;;;;;6288793;28;20271;-67
2022/11/23 08:08:07;;;;;;;3.83;3.70;;;3.60;99.90;;;;;;6289672;28;20296;-67
2022/11/23 08:11:16;;;;;;;3.20;3.10;;;3.60;99.90;;;;;;6304103;28;20263;-67
2022/11/23 08:14:20;;;;;;;3.60;3.33;;;3.60;99.90;;;;;;6313392;28;20598;-67
2022/11/23 08:17:25;;;;;;;3.43;3.33;;;3.70;99.90;;;;;;6313441;28;20294;-66
2022/11/23 08:20:32;;;;;;;4.13;3.20;;;3.70;99.90;;;;;;6313960;28;20263;-66
2022/11/23 08:23:37;;;;;;;3.60;3.50;;;3.60;99.90;;;;;;6313448;28;20297;-67
2022/11/23 08:26:43;;;;;;;3.70;3.40;;;3.50;99.90;;;;;;6313592;28;20288;-66
2022/11/23 08:29:47;;;;;;;3.77;3.63;;;3.50;99.90;;;;;;6313113;28;20301;-66
2022/11/23 08:32:52;;;;;;;3.80;3.60;;;3.40;99.90;;;;;;6313359;28;20302;-66
2022/11/23 08:35:57;;;;;;;3.43;3.33;;;3.50;99.90;;;;;;6313840;28;20543;-66
2022/11/23 08:39:01;;;;;;;3.50;3.40;;;3.50;99.90;;;;;;6313209;28;20599;-67
2022/11/23 08:42:08;;;;;;;3.97;3.67;;;3.50;99.90;;;;;;6312898;28;20458;-67
2022/11/23 08:45:12;;;;;;;4.10;3.80;;;3.40;99.90;;;;;;6313732;28;20271;-67
2022/11/23 08:48:17;;;;;;;3.77;3.50;;;3.40;99.90;;;;;;6312621;28;20298;-67
2022/11/23 08:51:22;;;;;;;3.70;3.50;;;3.40;99.90;;;;;;6313147;28;20451;-67
2022/11/23 08:54:27;;;;;;;3.60;3.40;;;3.40;99.90;;;;;;6313128;28;20295;-67
2022/11/23 08:57:33;;;;;;;4.17;3.87;;;3.40;99.90;;;;;;6312910;28;20294;-67
2022/11/23 09:00:38;;;;;;;4.13;4.03;;;3.40;99.90;;;;;;6312921;28;20266;-67
2022/11/23 09:03:43;;;;;;;4.77;4.47;;;3.40;99.90;;;;;;6312711;28;20294;-67
2022/11/23 09:06:48;;;;;;;4.47;4.07;;;3.50;99.90;;;;;;6312712;28;20568;-66
2022/11/23 09:09:53;;;;;;;4.90;4.47;;;3.50;99.90;;;;;;6312443;28;20283;-66
2022/11/23 09:13:00;;;;;;;8.53;4.40;;;3.40;99.90;;;;;;6312370;28;20297;-66
2022/11/23 09:16:06;;;;;;;4.80;4.40;;;3.50;99.90;;;;;;6312354;28;20269;-65
2022/11/23 09:19:13;;;;;;;4.57;4.17;;;3.50;99.90;;;;;;6312457;28;20298;-66
2022/11/23 09:22:18;;;;;;;4.50;4.30;;;3.50;99.90;;;;;;6311913;28;20562;-67
2022/11/23 09:25:23;;;;;;;4.23;4.03;;;3.50;99.90;;;;;;6313027;28;20270;-66
2022/11/23 09:28:30;;;;;;;4.30;3.87;;;3.60;99.90;;;;;;6312102;28;20299;-66
2022/11/23 09:31:35;;;;;;;4.00;3.70;;;3.60;99.90;;;;;;6312593;28;20269;-67
2022/11/23 09:34:40;;;;;;;4.33;3.93;;;3.70;99.90;;;;;;6311998;28;20301;-67
2022/11/23 09:37:45;;;;;;;4.07;3.90;;;3.70;99.90;;;;;;6311942;28;20480;-67
2022/11/23 09:40:56;;;;;;;3.90;3.70;;;3.70;99.90;;;;;;6311711;28;20299;-67
2022/11/23 09:44:07;;;;;;;5.27;4.27;;;3.80;99.90;;;;;;6311601;28;20296;-67
2022/11/23 09:47:31;;;;;;;3.53;3.33;;;3.80;99.90;;;;;;6311279;28;20268;-67
2022/11/23 09:50:48;;;;;;;8.53;5.27;;;3.70;99.90;;;;;;6312210;28;20271;-67
2022/11/23 09:53:56;;;;;;;6.33;5.83;;;3.80;99.90;;;;;;6311265;28;20306;-66
2022/11/23 09:57:01;;;;;;;6.53;3.70;;;3.80;99.90;;;;;;6311322;28;20263;-67
2022/11/23 10:00:17;;;;;;;3.73;3.53;;;3.80;99.90;;;;;;6311994;28;20273;-66
2022/11/23 10:03:23;;;;;;;3.30;3.10;;;3.90;99.90;;;;;;6310980;28;20286;-67
2022/11/23 10:06:30;;;;;;;3.57;3.27;;;3.90;99.90;;;;;;6311836;28;20440;-66
2022/11/23 10:09:43;;;;;;;3.13;3.03;;;3.80;99.90;;;;;;6310791;28;20306;-67
2022/11/23 10:12:57;;;;;;;3.00;2.90;;;3.80;99.90;;;;;;6311091;28;20300;-67
2022/11/23 10:16:19;;;;;;;4.43;3.23;;;3.80;99.90;;;;;;6311466;28;20307;-67
2022/11/23 10:19:31;;;;;;;3.43;3.23;;;3.80;99.90;;;;;;6310654;28;20596;-66
2022/11/23 10:22:43;;;;;;;3.30;3.10;;;3.90;99.90;;;;;;6309569;28;20484;-67
2022/11/23 10:25:50;;;;;;;3.93;3.73;;;3.90;99.90;;;;;;6311155;28;20277;-67
2022/11/23 10:28:55;;;;;;;12.03;8.50;;;3.90;99.90;;;;;;6310754;28;20311;-66
2022/11/23 10:32:02;;;;;;;4.43;4.23;;;3.80;99.90;;;;;;6311635;28;20269;-67
2022/11/23 10:35:13;;;;;;;3.97;3.77;;;3.90;99.90;;;;;;6310026;28;20290;-67
2022/11/23 10:38:19;;;;;;;5.13;4.77;;;3.90;99.90;;;;;;6310151;28;20294;-66
2022/11/23 10:41:25;;;;;;;4.37;4.17;;;4.00;99.90;;;;;;6333648;28;20300;-67
2022/11/23 10:44:32;;;;;;;3.47;3.37;;;4.00;99.90;;;;;;6335285;28;20317;-67
2022/11/23 10:47:41;;;;;;;2.90;2.80;;;4.00;99.90;;;;;;6335525;28;20479;-67
2022/11/23 10:50:46;;;;;;;3.40;3.10;;;4.00;99.90;;;;;;6335865;28;20270;-67
2022/11/23 10:53:54;;;;;;;3.30;3.00;;;4.00;99.90;;;;;;6335182;28;20368;-68
2022/11/23 10:57:22;;;;;;;3.30;3.20;;;4.00;99.90;;;;;;6335200;28;20266;-66
2022/11/23 11:00:29;;;;;;;3.30;3.20;;;4.00;99.90;;;;;;6335797;28;20269;-66
2022/11/23 11:03:36;;;;;;;3.37;3.07;;;4.00;99.90;;;;;;6334519;28;20429;-66
2022/11/23 11:06:41;;;;;;;3.40;3.30;;;4.00;99.90;;;;;;6335853;28;20464;-67
2022/11/23 11:09:50;;;;;;;2.73;2.73;;;4.00;99.90;;;;;;6330390;28;20293;-66
2022/11/23 11:12:55;;;;;;;3.60;3.40;;;4.00;99.90;;;;;;6285536;28;20468;-66
2022/11/23 11:16:02;;;;;;;4.10;3.30;;;3.90;99.90;;;;;;6285471;28;20294;-67
2022/11/23 11:19:27;;;;;;;3.50;3.40;;;4.00;99.90;;;;;;6284839;28;20369;-66
2022/11/23 11:22:35;;;;;;;3.80;3.60;;;4.00;99.90;;;;;;6285270;28;20292;-67
2022/11/23 11:25:40;;;;;;;3.70;3.43;;;4.00;99.90;;;;;;6285746;28;20551;-67
2022/11/23 11:28:49;;;;;;;4.17;3.70;;;4.00;99.90;;;;;;6286626;28;20477;-67
2022/11/23 11:31:58;;;;;;;3.77;3.37;;;4.10;99.90;;;;;;6290683;28;20263;-67
2022/11/23 11:35:13;;;;;;;4.30;4.10;;;4.20;99.90;;;;;;6289612;28;20288;-67
2022/11/23 11:38:30;;;;;;;5.00;3.97;;;4.10;99.90;;;;;;6289575;28;20298;-67
2022/11/23 11:41:35;;;;;;;3.57;3.37;;;4.10;99.90;;;;;;6313433;28;20295;-67
2022/11/23 11:44:41;;;;;;;4.00;3.80;;;4.10;99.90;;;;;;6314489;28;20313;-66
2022/11/23 11:47:50;;;;;;;4.00;3.80;;;4.20;99.90;;;;;;6314487;28;20292;-66
2022/11/23 11:51:03;;;;;;;3.70;3.50;;;4.10;99.90;;;;;;6314769;28;20270;-67
2022/11/23 11:54:17;;;;;;;4.10;3.67;;;4.10;99.90;;;;;;6314006;28;20587;-67
2022/11/23 11:57:27;;;;;;;3.53;3.43;;;4.00;99.90;;;;;;6313803;28;20299;-67
2022/11/23 12:00:34;;;;;;;4.10;3.20;;;4.10;99.90;;;;;;6315016;28;20266;-67
2022/11/23 12:03:51;;;;;;;3.37;3.07;;;4.10;99.90;;;;;;6314298;28;20301;-67
2022/11/23 12:07:05;;;;;;;2.80;2.60;;;4.10;99.90;;;;;;6297002;28;20371;-67
2022/11/23 12:10:17;;;;;;;3.07;2.97;;;4.10;99.90;;;;;;6319466;28;20276;-68
2022/11/23 12:13:23;;;;;;;3.10;2.90;;;4.20;99.90;;;;;;6338826;28;20350;-66
2022/11/23 12:16:32;;;;;;;2.63;2.43;;;4.20;99.90;;;;;;6339114;28;20282;-66
2022/11/23 12:19:42;;;;;;;2.73;2.53;;;4.20;99.90;;;;;;6338974;28;20297;-66
2022/11/23 12:23:00;;;;;;;2.73;2.53;;;4.10;99.90;;;;;;6338573;28;20297;-67
2022/11/23 12:26:21;;;;;;;2.40;2.20;;;4.20;99.90;;;;;;6339254;28;20271;-66
2022/11/23 12:29:39;;;;;;;2.33;2.10;;;4.20;99.90;;;;;;6338426;28;20468;-67
2022/11/23 12:32:59;;;;;;;1.97;1.87;;;4.10;99.90;;;;;;6338353;28;20443;-67
2022/11/23 12:36:35;;;;;;;2.03;2.03;;;4.00;99.90;;;;;;6338939;28;20287;-67
2022/11/23 12:40:21;;;;;;;1.87;1.77;;;4.10;99.90;;;;;;6330346;28;20303;-67
2022/11/23 12:43:31;;;;;;;2.10;2.10;;;4.00;99.90;;;;;;6311322;28;20561;-67
2022/11/23 12:46:46;;;;;;;1.67;1.67;;;4.10;99.90;;;;;;6313986;28;20276;-67
2022/11/23 12:49:55;;;;;;;1.70;1.70;;;4.20;99.90;;;;;;6312860;28;20299;-67
2022/11/23 12:53:10;;;;;;;2.10;1.90;;;4.20;99.90;;;;;;6312964;28;20302;-67
2022/11/23 12:56:27;;;;;;;1.90;1.80;;;4.20;99.90;;;;;;6313570;28;20290;-67
2022/11/23 12:59:42;;;;;;;2.07;1.90;;;4.10;99.90;;;;;;6312761;28;20595;-67
2022/11/23 13:03:20;;;;;;;2.13;1.70;;;4.20;99.90;;;;;;6312154;28;20303;-67
2022/11/23 13:07:11;;;;;;;1.87;1.87;;;4.20;99.90;;;;;;6312807;28;20281;-67
2022/11/23 13:10:46;;;;;;;1.47;1.47;;;4.10;99.90;;;;;;6311928;28;20284;-67
2022/11/23 13:14:08;;;;;;;1.60;1.60;;;4.10;99.90;;;;;;6312931;28;20298;-67
2022/11/23 13:17:24;;;;;;;1.70;1.70;;;4.10;99.90;;;;;;6312296;28;20300;-67
2022/11/23 13:20:46;;;;;;;1.77;1.67;;;4.10;99.90;;;;;;6313167;28;20273;-67
2022/11/23 13:23:51;;;;;;;1.97;1.93;;;4.10;99.90;;;;;;6311917;28;20291;-67
2022/11/23 13:27:45;;;;;;;1.40;1.40;;;4.10;99.90;;;;;;6312808;28;20292;-67
2022/11/23 13:31:19;;;;;;;2.17;1.80;;;3.90;99.90;;;;;;6235785;28;20578;-67
2022/11/23 13:34:44;;;;;;;2.00;1.47;;;4.00;99.90;;;;;;6312211;28;20287;-67
2022/11/23 13:38:19;;;;;;;1.83;1.50;;;4.00;99.90;;;;;;6311403;28;20300;-67
2022/11/23 13:42:00;;;;;;;1.93;1.60;;;4.10;99.90;;;;;;6311542;28;20297;-67
2022/11/23 13:45:35;;;;;;;1.67;1.60;;;4.00;99.90;;;;;;6310882;28;20272;-67
2022/11/23 13:48:46;;;;;;;1.50;1.40;;;3.90;99.90;;;;;;6311581;28;20618;-67
2022/11/23 13:52:27;;;;;;;1.53;1.43;;;3.90;99.90;;;;;;6311736;28;20281;-67
2022/11/23 13:55:35;;;;;;;1.60;1.60;;;3.90;99.90;;;;;;6311745;28;20271;-67
2022/11/23 13:58:40;;;;;;;3.27;1.50;;;3.90;99.90;;;;;;6311294;28;20488;-67
2022/11/23 14:02:29;;;;;;;1.50;1.50;;;3.90;99.90;;;;;;6311935;28;20270;-67
2022/11/23 14:05:57;;;;;;;1.63;1.63;;;4.00;99.90;;;;;;6310839;28;20275;-67
2022/11/23 14:09:06;;;;;;;1.50;1.50;;;3.90;99.90;;;;;;6311076;28;20317;-67
2022/11/23 14:12:21;;;;;;;1.80;1.70;;;3.90;99.90;;;;;;6311153;28;20259;-67
2022/11/23 14:15:28;;;;;;;1.70;1.70;;;3.90;99.90;;;;;;6311368;28;20273;-68
2022/11/23 14:18:51;;;;;;;2.07;2.07;;;3.90;99.90;;;;;;6310882;28;20506;-67
2022/11/23 14:22:06;;;;;;;1.60;1.60;;;3.80;99.90;;;;;;6311800;28;20265;-66
2022/11/23 14:25:38;;;;;;;1.67;1.67;;;3.70;99.90;;;;;;6310169;28;20273;-66
2022/11/23 14:28:58;;;;;;;1.60;1.50;;;3.80;99.90;;;;;;6310728;28;20295;-66
2022/11/23 14:32:20;;;;;;;1.77;1.77;;;3.80;99.90;;;;;;6310715;28;20445;-68
2022/11/23 14:35:32;;;;;;;1.60;1.60;;;3.70;99.90;;;;;;6310759;28;20274;-66
2022/11/23 14:39:08;;;;;;;1.37;1.37;;;3.80;99.90;;;;;;6310423;28;20302;-66
2022/11/23 14:42:19;;;;;;;4.43;1.70;;;3.80;99.90;;;;;;6310096;28;20270;-67
2022/11/23 14:45:33;;;;;;;1.57;1.57;;;3.80;99.90;;;;;;6311418;28;20270;-67
2022/11/23 14:48:38;;;;;;;1.60;1.60;;;3.80;99.90;;;;;;6310657;28;20335;-67
2022/11/23 14:51:44;;;;;;;1.57;1.57;;;3.80;99.90;;;;;;6311223;28;20277;-67
2022/11/23 14:54:52;;;;;;;1.60;1.60;;;3.80;99.90;;;;;;6310159;28;20300;-67
2022/11/23 14:58:03;;;;;;;1.97;1.80;;;3.70;99.90;;;;;;6309963;28;20309;-68
2022/11/23 15:01:10;;;;;;;1.40;1.40;;;3.70;99.90;;;;;;6310593;28;20270;-68
2022/11/23 15:04:32;;;;;;;1.50;1.50;;;3.70;99.90;;;;;;6309745;28;20291;-67
2022/11/23 15:07:48;;;;;;;1.43;1.43;;;3.80;99.90;;;;;;6310597;28;20311;-66
2022/11/23 15:11:01;;;;;;;1.80;1.80;;;3.70;99.90;;;;;;6310960;28;20266;-66
2022/11/23 15:14:18;;;;;;;1.67;1.67;;;3.70;99.90;;;;;;6310465;28;20308;-67
2022/11/23 15:17:24;;;;;;;2.10;2.00;;;3.80;99.90;;;;;;6309891;28;20482;-66
2022/11/23 15:20:32;;;;;;;1.60;1.60;;;3.80;99.90;;;;;;6310696;28;20267;-66
2022/11/23 15:23:42;;;;;;;1.77;1.73;;;3.80;99.90;;;;;;6310372;28;20301;-66
2022/11/23 15:26:48;;;;;;;1.80;1.70;;;3.80;99.90;;;;;;6310236;28;20488;-67
2022/11/23 15:29:55;;;;;;;1.80;1.80;;;3.70;99.90;;;;;;6310258;28;20317;-67
2022/11/23 15:33:04;;;;;;;1.77;1.67;;;3.80;99.90;;;;;;6310188;28;20302;-67
2022/11/23 15:36:11;;;;;;;1.70;1.70;;;3.60;99.90;;;;;;6310763;28;20263;-66
2022/11/23 15:39:19;;;;;;;1.70;1.70;;;3.60;99.90;;;;;;6309679;28;20457;-67
2022/11/23 15:42:26;;;;;;;2.07;1.87;;;3.60;99.90;;;;;;6309390;28;20318;-67
2022/11/23 15:45:38;;;;;;;1.87;1.80;;;3.60;99.90;;;;;;6292296;28;20269;-66
2022/11/23 15:48:42;;;;;;;2.20;2.10;;;3.60;99.90;;;;;;6309478;28;20291;-67
2022/11/23 15:51:48;;;;;;;2.00;2.00;;;3.70;99.90;;;;;;6310628;28;20269;-68
2022/11/23 15:54:52;;;;;;;1.97;1.97;;;3.70;99.90;;;;;;6309811;28;20303;-67
2022/11/23 15:58:00;;;;;;;1.80;1.70;;;3.70;99.90;;;;;;6309102;28;20293;-67
2022/11/23 16:01:07;;;;;;;2.13;2.07;;;3.70;99.90;;;;;;6310001;28;20268;-67
2022/11/23 16:04:26;;;;;;;2.00;1.90;;;3.70;99.90;;;;;;6309178;28;20493;-67
2022/11/23 16:07:31;;;;;;;1.87;1.87;;;3.70;99.90;;;;;;6309058;28;20298;-67
2022/11/23 16:10:54;;;;;;;2.10;2.07;;;3.80;99.90;;;;;;6319183;28;20265;-67
2022/11/23 16:14:18;;;;;;;2.60;2.30;;;3.90;99.90;;;;;;6334481;28;20313;-66
2022/11/23 16:17:24;;;;;;;2.00;2.00;;;3.90;99.90;;;;;;6337695;28;20294;-67
2022/11/23 16:20:30;;;;;;;2.20;2.10;;;3.90;99.90;;;;;;6339040;28;20262;-68
2022/11/23 16:23:44;;;;;;;3.23;2.40;;;3.90;99.90;;;;;;6338833;28;20286;-66
2022/11/23 16:26:49;;;;;;;3.00;2.90;;;3.90;99.90;;;;;;6339500;28;20267;-66
2022/11/23 16:29:55;;;;;;;2.40;2.13;;;3.90;99.90;;;;;;6338733;28;20294;-67
2022/11/23 16:33:09;;;;;;;2.07;2.07;;;3.90;99.90;;;;;;6338510;28;20626;-66
2022/11/23 16:36:14;;;;;;;2.03;2.03;;;3.90;99.90;;;;;;6339156;28;20269;-66
2022/11/23 16:39:19;;;;;;;4.03;1.83;;;3.90;99.90;;;;;;6333792;28;20317;-67
2022/11/23 16:42:24;;;;;;;2.13;2.00;;;3.90;99.90;;;;;;6312957;28;20309;-66
2022/11/23 16:45:30;;;;;;;2.30;1.90;;;3.90;99.90;;;;;;6313686;28;20263;-66